createdAt,value
2022-11-04T00:00:45.717Z,9.87
2022-11-04T00:03:52.772Z,9.85
2022-11-04T00:06:58.416Z,9.81
2022-11-04T00:10:01.057Z,9.78
2022-11-04T00:13:03.902Z,9.77
2022-11-04T00:16:28.730Z,9.75
2022-11-04T00:19:51.265Z,9.75
2022-11-04T00:23:12.514Z,9.74
2022-11-04T00:26:33.507Z,9.75
2022-11-04T00:29:36.465Z,9.74
2022-11-04T00:32:57.546Z,9.74
2022-11-04T00:36:00.173Z,9.72
2022-11-04T00:39:05.931Z,9.69
2022-11-04T00:42:08.563Z,9.67
2022-11-04T00:45:11.525Z,9.65
2022-11-04T00:48:14.269Z,9.63
2022-11-04T00:51:16.874Z,9.59
2022-11-04T00:54:19.609Z,9.57
2022-11-04T00:57:22.180Z,9.49
2022-11-04T01:00:26.548Z,9.41
2022-11-04T01:03:29.558Z,9.37
2022-11-04T01:06:32.747Z,9.34
2022-11-04T01:09:36.000Z,9.23
2022-11-04T01:12:41.796Z,9.24
2022-11-04T01:15:44.549Z,9.24
2022-11-04T01:18:47.468Z,9.17
2022-11-04T01:21:52.852Z,9.18
2022-11-04T01:24:55.599Z,9.18
2022-11-04T01:27:58.327Z,9.15
2022-11-04T01:31:06.613Z,9.13
2022-11-04T01:34:09.583Z,9.13
2022-11-04T01:37:12.338Z,9.13
2022-11-04T01:40:15.259Z,9.11
2022-11-04T01:43:20.227Z,9.07
2022-11-04T01:46:38.533Z,9.08
2022-11-04T01:49:43.502Z,9.01
2022-11-04T01:52:53.185Z,9.02
2022-11-04T01:56:12.377Z,9.01
2022-11-04T01:59:23.435Z,9.01
2022-11-04T02:02:26.370Z,9.00
2022-11-04T02:05:30.643Z,8.97
2022-11-04T02:08:34.340Z,8.96
2022-11-04T02:11:55.581Z,8.94
2022-11-04T02:14:58.670Z,8.93
2022-11-04T02:18:07.519Z,8.93
2022-11-04T02:21:37.792Z,8.94
2022-11-04T02:24:55.939Z,8.87
2022-11-04T02:28:03.259Z,8.87
2022-11-04T02:31:33.959Z,8.82
2022-11-04T02:35:01.888Z,8.72
2022-11-04T02:38:27.805Z,8.71
2022-11-04T02:41:45.927Z,8.62
2022-11-04T02:45:19.921Z,8.61
2022-11-04T02:48:46.809Z,8.61
2022-11-04T02:52:08.748Z,8.56
2022-11-04T02:55:25.851Z,8.59
2022-11-04T02:58:36.042Z,8.56
2022-11-04T03:01:41.309Z,8.58
2022-11-04T03:04:46.794Z,8.59
2022-11-04T03:07:50.984Z,8.61
2022-11-04T03:10:55.812Z,8.61
2022-11-04T03:14:39.032Z,8.62
2022-11-04T03:17:54.191Z,8.63
2022-11-04T03:20:58.918Z,8.64
2022-11-04T03:24:02.476Z,8.63
2022-11-04T03:27:42.802Z,8.64
2022-11-04T03:30:48.518Z,8.63
2022-11-04T03:33:52.543Z,8.62
2022-11-04T03:36:55.439Z,8.64
2022-11-04T03:39:58.342Z,8.66
2022-11-04T03:43:16.896Z,8.67
2022-11-04T03:46:19.844Z,8.66
2022-11-04T03:49:26.332Z,8.67
2022-11-04T03:52:30.017Z,8.66
2022-11-04T03:56:10.786Z,8.67
2022-11-04T03:59:57.760Z,8.65
2022-11-04T04:03:09.862Z,8.63
2022-11-04T04:06:19.664Z,8.65
2022-11-04T04:09:32.047Z,8.66
2022-11-04T04:12:40.815Z,8.64
2022-11-04T04:15:55.318Z,8.64
2022-11-04T04:19:12.402Z,8.63
2022-11-04T04:22:19.644Z,8.63
2022-11-04T04:25:43.273Z,8.62
2022-11-04T04:28:46.437Z,8.62
2022-11-04T04:31:50.052Z,8.61
2022-11-04T04:35:13.003Z,8.60
2022-11-04T04:38:44.693Z,8.60
2022-11-04T04:42:06.838Z,8.57
2022-11-04T04:45:11.607Z,8.57
2022-11-04T04:48:14.394Z,8.57
2022-11-04T04:51:17.822Z,8.57
2022-11-04T04:54:23.582Z,8.55
2022-11-04T04:57:26.682Z,8.57
2022-11-04T05:00:29.802Z,8.59
2022-11-04T05:03:37.800Z,8.59
2022-11-04T05:06:42.608Z,8.60
2022-11-04T05:09:45.377Z,8.61
2022-11-04T05:13:06.634Z,8.62
2022-11-04T05:16:11.263Z,8.62
2022-11-04T05:19:14.382Z,8.64
2022-11-04T05:22:17.372Z,8.62
2022-11-04T05:25:20.333Z,8.62
2022-11-04T05:28:23.251Z,8.64
2022-11-04T05:31:26.071Z,8.65
2022-11-04T05:34:28.883Z,8.67
2022-11-04T05:37:31.744Z,8.67
2022-11-04T05:40:34.721Z,8.69
2022-11-04T05:43:37.935Z,8.70
2022-11-04T05:46:40.762Z,8.72
2022-11-04T05:49:43.596Z,8.74
2022-11-04T05:52:46.435Z,8.75
2022-11-04T05:55:49.285Z,8.77
2022-11-04T05:58:52.172Z,8.80
2022-11-04T06:01:55.062Z,8.82
2022-11-04T06:04:58.017Z,8.83
2022-11-04T06:08:00.794Z,8.86
2022-11-04T06:11:05.613Z,8.89
2022-11-04T06:14:08.549Z,8.92
2022-11-04T06:17:20.033Z,8.94
2022-11-04T06:20:23.176Z,8.97
2022-11-04T06:23:25.923Z,8.96
2022-11-04T06:26:31.106Z,9.01
2022-11-04T06:29:34.174Z,9.07
2022-11-04T06:32:36.972Z,9.09
2022-11-04T06:35:39.684Z,9.10
2022-11-04T06:38:43.129Z,9.10
2022-11-04T06:41:50.482Z,9.12
2022-11-04T06:44:54.686Z,9.15
2022-11-04T06:47:57.699Z,9.21
2022-11-04T06:51:01.667Z,9.24
2022-11-04T06:54:04.967Z,9.24
2022-11-04T06:57:10.400Z,9.23
2022-11-04T07:00:13.932Z,9.31
2022-11-04T07:03:16.786Z,9.32
2022-11-04T07:06:20.528Z,9.33
2022-11-04T07:09:23.425Z,9.33
2022-11-04T07:12:26.443Z,9.34
2022-11-04T07:15:29.255Z,9.29
2022-11-04T07:18:32.163Z,9.32
2022-11-04T07:21:35.955Z,9.35
2022-11-04T07:24:39.060Z,9.32
2022-11-04T07:27:42.624Z,9.30
2022-11-04T07:30:45.427Z,9.32
2022-11-04T07:33:50.425Z,9.33
2022-11-04T07:36:53.235Z,9.29
2022-11-04T07:39:56.094Z,9.26
2022-11-04T07:42:58.913Z,9.31
2022-11-04T07:46:05.921Z,9.20
2022-11-04T07:49:09.083Z,9.14
2022-11-04T07:52:12.117Z,9.08
2022-11-04T07:55:18.835Z,9.04
2022-11-04T07:58:22.605Z,8.99
2022-11-04T08:01:25.934Z,9.02
2022-11-04T08:04:28.997Z,9.05
2022-11-04T08:07:31.829Z,9.09
2022-11-04T08:10:36.330Z,9.10
2022-11-04T08:13:40.339Z,9.14
2022-11-04T08:16:43.363Z,9.12
2022-11-04T08:19:46.372Z,9.14
2022-11-04T08:22:49.646Z,9.14
2022-11-04T08:25:52.449Z,9.17
2022-11-04T08:28:55.238Z,9.21
2022-11-04T08:31:58.271Z,9.25
2022-11-04T08:35:01.923Z,9.26
2022-11-04T08:38:04.789Z,9.25
2022-11-04T08:41:09.850Z,9.26
2022-11-04T08:44:14.589Z,9.30
2022-11-04T08:47:17.770Z,9.31
2022-11-04T08:50:22.083Z,9.33
2022-11-04T08:53:25.469Z,9.30
2022-11-04T08:56:30.488Z,9.31
2022-11-04T08:59:33.451Z,9.29
2022-11-04T09:02:36.278Z,9.27
2022-11-04T09:05:49.776Z,9.31
2022-11-04T09:08:55.606Z,9.33
2022-11-04T09:11:58.672Z,9.37
2022-11-04T09:15:01.551Z,9.36
2022-11-04T09:18:05.393Z,9.39
2022-11-04T09:21:10.406Z,9.40
2022-11-04T09:24:14.267Z,9.43
2022-11-04T09:27:17.433Z,9.49
2022-11-04T09:30:20.338Z,9.51
2022-11-04T09:33:23.370Z,9.49
2022-11-04T09:36:26.973Z,9.49
2022-11-04T09:39:29.819Z,9.49
2022-11-04T09:42:46.580Z,9.50
2022-11-04T09:45:49.667Z,9.52
2022-11-04T09:48:55.475Z,9.53
2022-11-04T09:52:00.153Z,9.53
2022-11-04T09:55:15.097Z,9.55
2022-11-04T09:58:18.292Z,9.58
2022-11-04T10:01:49.581Z,9.60
2022-11-04T10:05:05.223Z,9.60
2022-11-04T10:08:37.577Z,9.62
2022-11-04T10:12:11.726Z,9.67
2022-11-04T10:15:39.130Z,9.68
2022-11-04T10:18:58.468Z,9.71
2022-11-04T10:22:05.399Z,9.74
2022-11-04T10:25:14.329Z,9.79
2022-11-04T10:28:19.699Z,9.82
2022-11-04T10:31:22.693Z,9.88
2022-11-04T10:34:47.884Z,9.94
2022-11-04T10:37:53.470Z,9.95
2022-11-04T10:40:57.874Z,9.98
2022-11-04T10:44:06.321Z,10.03
2022-11-04T10:47:17.619Z,10.09
2022-11-04T10:50:29.748Z,10.30
2022-11-04T10:53:34.309Z,10.35
2022-11-04T10:57:03.739Z,10.46
2022-11-04T11:00:07.281Z,10.51
2022-11-04T11:03:32.553Z,10.56
2022-11-04T11:06:36.725Z,10.50
2022-11-04T11:09:53.404Z,10.42
2022-11-04T11:13:08.426Z,10.38
2022-11-04T11:16:14.214Z,10.38
2022-11-04T11:19:22.065Z,10.45
2022-11-04T11:22:41.699Z,10.62
2022-11-04T11:25:50.075Z,10.51
2022-11-04T11:28:59.117Z,10.47
2022-11-04T11:32:02.327Z,10.61
2022-11-04T11:35:10.731Z,10.59
2022-11-04T11:38:29.817Z,10.58
2022-11-04T11:42:03.495Z,10.44
2022-11-04T11:45:17.215Z,10.54
2022-11-04T11:48:40.178Z,10.44
2022-11-04T11:51:43.887Z,10.48
2022-11-04T11:54:49.602Z,10.53
2022-11-04T12:01:52.157Z,10.54
2022-11-04T12:12:32.038Z,10.35
2022-11-04T12:16:12.489Z,10.35
2022-11-04T12:19:27.628Z,10.36
2022-11-04T12:22:55.116Z,10.37
2022-11-04T12:26:24.838Z,10.39
2022-11-04T12:29:46.043Z,10.41
2022-11-04T12:33:07.784Z,10.37
2022-11-04T12:36:34.209Z,10.36
2022-11-04T12:39:47.311Z,10.35
2022-11-04T12:42:53.238Z,10.34
2022-11-04T12:46:15.385Z,10.27
2022-11-04T12:49:51.097Z,10.28
2022-11-04T12:53:16.206Z,10.29
2022-11-04T12:56:20.953Z,10.26
2022-11-04T12:59:58.513Z,10.24
2022-11-04T13:03:06.286Z,10.25
2022-11-04T13:06:09.350Z,10.22
2022-11-04T13:09:15.268Z,10.25
2022-11-04T13:12:21.706Z,10.22
2022-11-04T13:15:28.862Z,10.18
2022-11-04T13:18:33.956Z,10.16
2022-11-04T13:21:38.444Z,10.14
2022-11-04T13:24:48.255Z,10.12
2022-11-04T13:27:51.454Z,10.08
2022-11-04T13:31:18.095Z,10.03
2022-11-04T13:34:35.034Z,10.02
2022-11-04T13:37:43.406Z,10.03
2022-11-04T13:41:21.281Z,9.99
2022-11-04T13:44:27.057Z,9.95
2022-11-04T13:47:36.828Z,9.95
2022-11-04T13:50:40.396Z,9.97
2022-11-04T13:53:47.823Z,9.98
2022-11-04T13:56:50.639Z,9.96
2022-11-04T14:00:11.791Z,9.93
2022-11-04T14:03:30.651Z,9.93
2022-11-04T14:06:58.086Z,9.92
2022-11-04T14:10:01.268Z,9.92
2022-11-04T14:13:33.702Z,9.91
2022-11-04T14:16:41.442Z,9.91
2022-11-04T14:19:59.027Z,9.90
2022-11-04T14:23:04.173Z,9.91
2022-11-04T14:26:18.632Z,9.92
2022-11-04T14:29:26.541Z,9.94
2022-11-04T14:32:37.671Z,9.95
2022-11-04T14:35:40.502Z,10.00
2022-11-04T14:38:43.986Z,9.98
2022-11-04T14:41:59.706Z,9.99
2022-11-04T14:45:04.130Z,10.00
2022-11-04T14:48:16.021Z,10.02
2022-11-04T14:51:28.083Z,9.99
2022-11-04T14:54:33.186Z,9.97
2022-11-04T14:57:40.478Z,9.96
2022-11-04T15:00:49.527Z,9.95
2022-11-04T15:07:33.160Z,9.93
2022-11-04T15:10:35.894Z,9.91
2022-11-04T15:13:45.363Z,9.91
2022-11-04T15:16:53.240Z,9.91
2022-11-04T15:19:58.339Z,9.90
2022-11-04T15:23:02.495Z,9.91
2022-11-04T15:26:06.845Z,9.91
2022-11-04T15:29:12.856Z,9.93
2022-11-04T15:32:17.244Z,9.93
2022-11-04T15:35:20.526Z,9.98
2022-11-04T15:38:27.203Z,9.98
2022-11-04T15:41:50.180Z,9.98
2022-11-04T15:44:54.612Z,9.98
2022-11-04T15:48:23.237Z,9.97
2022-11-04T15:51:26.795Z,9.97
2022-11-04T15:54:32.299Z,9.93
2022-11-04T15:57:39.183Z,9.95
2022-11-04T16:00:44.718Z,9.94
2022-11-04T16:03:56.153Z,9.94
2022-11-04T16:07:11.533Z,9.95
2022-11-04T16:10:33.977Z,9.99
2022-11-04T16:13:37.034Z,10.05
2022-11-04T16:16:40.051Z,10.05
2022-11-04T16:19:47.813Z,10.05
2022-11-04T16:22:57.245Z,10.08
2022-11-04T16:26:04.572Z,10.07
2022-11-04T16:29:19.649Z,10.06
2022-11-04T16:32:28.251Z,10.04
2022-11-04T16:35:32.116Z,10.03
2022-11-04T16:38:35.499Z,10.01
2022-11-04T16:41:40.769Z,9.99
2022-11-04T16:45:04.263Z,9.97
2022-11-04T16:48:08.926Z,9.99
2022-11-04T16:51:20.127Z,9.96
2022-11-04T16:54:26.998Z,10.00
2022-11-04T16:57:30.156Z,9.98
2022-11-04T17:00:34.958Z,10.00
2022-11-04T17:03:38.541Z,9.98
2022-11-04T17:06:41.532Z,9.97
2022-11-04T17:09:44.459Z,9.99
2022-11-04T17:12:50.781Z,9.95
2022-11-04T17:15:54.733Z,9.94
2022-11-04T17:18:57.878Z,9.95
2022-11-04T17:22:03.048Z,9.93
2022-11-04T17:25:15.918Z,9.90
2022-11-04T17:28:20.393Z,9.85
2022-11-04T17:31:23.840Z,9.84
2022-11-04T17:34:27.116Z,9.83
2022-11-04T17:37:32.474Z,9.82
2022-11-04T17:40:55.680Z,9.85
2022-11-04T17:44:01.595Z,9.87
2022-11-04T17:47:04.846Z,9.85
2022-11-04T17:50:09.374Z,9.70
2022-11-04T17:53:13.401Z,9.55
2022-11-04T17:56:19.698Z,9.44
2022-11-04T17:59:31.104Z,9.37
2022-11-04T18:02:37.167Z,9.34
2022-11-04T18:05:41.194Z,9.33
2022-11-04T18:08:44.693Z,9.31
2022-11-04T18:12:08.504Z,9.30
2022-11-04T18:15:14.692Z,9.27
2022-11-04T18:18:17.614Z,9.23
2022-11-04T18:21:20.920Z,9.13
2022-11-04T18:24:24.463Z,9.05
2022-11-04T18:27:27.583Z,9.02
2022-11-04T18:30:31.045Z,8.97
2022-11-04T18:33:34.141Z,8.91
2022-11-04T18:36:38.885Z,8.86
2022-11-04T18:39:42.744Z,8.84
2022-11-04T18:42:45.741Z,8.76
2022-11-04T18:45:48.847Z,8.70
2022-11-04T18:48:52.718Z,8.66
2022-11-04T18:51:55.949Z,8.62
2022-11-04T18:55:00.096Z,8.58
2022-11-04T18:58:03.466Z,8.55
2022-11-04T19:01:08.706Z,8.51
2022-11-04T19:04:13.405Z,8.42
2022-11-04T19:07:17.047Z,8.40
2022-11-04T19:10:19.997Z,8.37
2022-11-04T19:13:23.265Z,8.36
2022-11-04T19:16:27.420Z,8.31
2022-11-04T19:19:30.618Z,8.31
2022-11-04T19:22:33.798Z,8.31
2022-11-04T19:25:42.259Z,8.27
2022-11-04T19:28:48.460Z,8.25
2022-11-04T19:31:52.158Z,8.24
2022-11-04T19:34:55.183Z,8.21
2022-11-04T19:38:00.337Z,8.19
2022-11-04T19:41:05.821Z,8.15
2022-11-04T19:44:11.480Z,8.18
2022-11-04T19:47:14.550Z,8.15
2022-11-04T19:50:18.559Z,8.12
2022-11-04T19:53:22.759Z,8.13
2022-11-04T19:56:25.986Z,8.13
2022-11-04T19:59:28.880Z,8.13
2022-11-04T20:02:32.238Z,8.15
2022-11-04T20:05:40.100Z,8.14
2022-11-04T20:08:48.686Z,8.13
2022-11-04T20:12:11.010Z,8.15
2022-11-04T20:15:14.857Z,8.16
2022-11-04T20:18:17.988Z,8.16
2022-11-04T20:21:21.527Z,8.14
2022-11-04T20:24:25.567Z,8.14
2022-11-04T20:27:28.733Z,8.15
2022-11-04T20:30:31.732Z,8.16
2022-11-04T20:33:37.024Z,8.15
2022-11-04T20:36:40.900Z,8.16
2022-11-04T20:39:44.740Z,8.19
2022-11-04T20:42:48.075Z,8.22
2022-11-04T20:45:52.485Z,8.22
2022-11-04T20:48:57.362Z,8.21
2022-11-04T20:52:00.823Z,8.23
2022-11-04T20:55:06.965Z,8.21
2022-11-04T20:58:10.460Z,8.19
2022-11-04T21:01:26.617Z,8.24
2022-11-04T21:04:35.757Z,8.22
2022-11-04T21:07:40.426Z,8.24
2022-11-04T21:10:52.081Z,8.24
2022-11-04T21:13:55.670Z,8.23
2022-11-04T21:16:58.763Z,8.24
2022-11-04T21:20:01.647Z,8.24
2022-11-04T21:23:04.799Z,8.28
2022-11-04T21:26:22.097Z,8.27
2022-11-04T21:29:25.319Z,8.30
2022-11-04T21:32:28.262Z,8.32
2022-11-04T21:35:34.757Z,8.32
2022-11-04T21:38:37.778Z,8.27
2022-11-04T21:41:40.897Z,8.27
2022-11-04T21:44:44.057Z,8.29
2022-11-04T21:47:47.185Z,8.30
2022-11-04T21:50:50.074Z,8.28
2022-11-04T21:53:53.395Z,8.28
2022-11-04T21:56:56.451Z,8.33
2022-11-04T21:59:59.710Z,8.32
2022-11-04T22:03:02.726Z,8.34
2022-11-04T22:06:10.787Z,8.30
2022-11-04T22:09:13.922Z,8.32
2022-11-04T22:12:17.165Z,8.31
2022-11-04T22:15:39.126Z,8.29
2022-11-04T22:18:42.519Z,8.34
2022-11-04T22:21:46.482Z,8.41
2022-11-04T22:25:03.375Z,8.39
2022-11-04T22:28:06.471Z,8.40
2022-11-04T22:31:11.118Z,8.41
2022-11-04T22:34:13.909Z,8.40
2022-11-04T22:37:16.768Z,8.44
2022-11-04T22:40:19.767Z,8.38
2022-11-04T22:43:23.204Z,8.38
2022-11-04T22:46:30.930Z,8.39
2022-11-04T22:49:34.031Z,8.40
2022-11-04T22:52:37.291Z,8.36
2022-11-04T22:55:40.184Z,8.36
2022-11-04T22:58:42.993Z,8.39
2022-11-04T23:01:46.019Z,8.36
2022-11-04T23:04:49.095Z,8.36
2022-11-04T23:07:52.047Z,8.30
2022-11-04T23:11:19.515Z,8.31
2022-11-04T23:14:54.719Z,8.30
2022-11-04T23:18:16.491Z,8.28
2022-11-04T23:21:39.819Z,8.25
2022-11-04T23:25:01.008Z,8.20
2022-11-04T23:28:22.290Z,8.21
2022-11-04T23:31:25.122Z,8.20
2022-11-04T23:34:46.394Z,8.17
2022-11-04T23:37:49.233Z,8.19
2022-11-04T23:41:18.327Z,8.17
2022-11-04T23:44:39.741Z,8.12
2022-11-04T23:48:03.126Z,8.11
2022-11-04T23:51:24.716Z,8.15
2022-11-04T23:54:46.178Z,8.13
2022-11-04T23:58:07.508Z,8.10
